createdAt,value
2022-11-29T00:01:46.972Z,17.67
2022-11-29T00:04:48.701Z,16.08
2022-11-29T00:07:50.336Z,16.57
2022-11-29T00:10:52.151Z,17.35
2022-11-29T00:13:53.789Z,19.23
2022-11-29T00:16:57.744Z,17.35
2022-11-29T00:19:59.408Z,17.20
2022-11-29T00:23:01.266Z,18.27
2022-11-29T00:26:07.014Z,17.27
2022-11-29T00:29:08.664Z,16.90
2022-11-29T00:32:10.477Z,17.63
2022-11-29T00:35:12.373Z,16.33
2022-11-29T00:38:14.036Z,18.23
2022-11-29T00:41:15.672Z,18.38
2022-11-29T00:44:20.350Z,17.02
2022-11-29T00:47:22.366Z,15.00
2022-11-29T00:50:24.021Z,17.08
2022-11-29T00:53:25.653Z,18.08
2022-11-29T00:56:27.357Z,17.67
2022-11-29T00:59:34.125Z,16.47
2022-11-29T01:02:35.746Z,17.25
2022-11-29T01:05:37.464Z,16.83
2022-11-29T01:08:39.236Z,16.27
2022-11-29T01:11:40.840Z,16.27
2022-11-29T01:14:46.582Z,14.73
2022-11-29T01:17:49.226Z,16.70
2022-11-29T01:21:05.824Z,16.45
2022-11-29T01:24:07.582Z,15.35
2022-11-29T01:27:10.047Z,16.77
2022-11-29T01:30:11.992Z,15.50
2022-11-29T01:33:13.619Z,16.67
2022-11-29T01:36:15.228Z,16.05
2022-11-29T01:39:16.924Z,16.13
2022-11-29T01:42:18.788Z,16.48
2022-11-29T01:45:28.177Z,16.35
2022-11-29T01:48:30.868Z,15.60
2022-11-29T01:51:32.754Z,14.88
2022-11-29T01:54:35.728Z,14.77
2022-11-29T01:57:37.498Z,15.13
2022-11-29T02:00:43.171Z,14.07
2022-11-29T02:03:44.848Z,16.15
2022-11-29T02:06:46.454Z,14.80
2022-11-29T02:09:48.117Z,14.80
2022-11-29T02:13:20.325Z,12.35
2022-11-29T02:16:30.827Z,15.68
2022-11-29T02:20:28.255Z,14.18
2022-11-29T02:23:51.465Z,15.35
2022-11-29T02:27:01.361Z,15.20
2022-11-29T02:30:06.395Z,14.73
2022-11-29T02:33:22.986Z,13.87
2022-11-29T02:36:33.492Z,15.70
2022-11-29T02:40:06.896Z,15.70
2022-11-29T02:43:20.568Z,14.97
2022-11-29T02:46:50.519Z,15.75
2022-11-29T02:50:13.980Z,15.43
2022-11-29T02:53:20.157Z,15.45
2022-11-29T02:56:47.892Z,15.15
2022-11-29T03:00:02.863Z,16.65
2022-11-29T03:03:13.456Z,15.45
2022-11-29T03:06:31.966Z,13.00
2022-11-29T03:09:40.347Z,14.05
2022-11-29T03:12:47.380Z,14.05
2022-11-29T03:16:06.594Z,15.77
2022-11-29T03:19:26.969Z,14.13
2022-11-29T03:22:48.208Z,13.80
2022-11-29T03:25:57.557Z,15.77
2022-11-29T03:29:11.847Z,13.68
2022-11-29T03:32:22.289Z,14.35
2022-11-29T03:35:35.415Z,13.57
2022-11-29T03:38:44.244Z,14.77
2022-11-29T03:42:00.184Z,14.85
2022-11-29T03:45:23.614Z,13.93
2022-11-29T03:48:48.973Z,14.83
2022-11-29T03:51:59.776Z,14.30
2022-11-29T03:55:20.043Z,14.93
2022-11-29T03:58:52.713Z,13.10
2022-11-29T04:02:35.642Z,12.80
2022-11-29T04:05:59.992Z,14.02
2022-11-29T04:09:13.046Z,13.52
2022-11-29T04:12:20.661Z,13.67
2022-11-29T04:15:57.103Z,14.63
2022-11-29T04:19:20.384Z,14.20
2022-11-29T04:22:30.771Z,14.67
2022-11-29T04:25:53.915Z,13.15
2022-11-29T04:29:07.099Z,13.85
2022-11-29T04:32:51.339Z,14.20
2022-11-29T04:36:01.920Z,13.60
2022-11-29T04:39:09.607Z,14.27
2022-11-29T04:42:30.940Z,12.93
2022-11-29T04:45:32.700Z,11.53
2022-11-29T04:49:00.659Z,12.27
2022-11-29T04:52:25.092Z,11.80
2022-11-29T04:55:44.983Z,11.47
2022-11-29T04:58:49.573Z,10.93
2022-11-29T05:01:59.111Z,11.73
2022-11-29T05:05:31.731Z,11.98
2022-11-29T05:08:48.428Z,10.82
2022-11-29T05:12:45.849Z,10.38
2022-11-29T05:16:00.747Z,11.00
2022-11-29T05:19:39.392Z,11.57
2022-11-29T05:23:10.842Z,11.40
2022-11-29T05:26:27.205Z,11.32
2022-11-29T05:29:51.844Z,10.80
2022-11-29T05:33:04.020Z,10.27
2022-11-29T05:36:14.832Z,11.35
2022-11-29T05:39:53.155Z,10.93
2022-11-29T05:43:16.937Z,10.90
2022-11-29T05:46:38.243Z,11.57
2022-11-29T05:50:19.881Z,11.10
2022-11-29T05:53:28.044Z,10.77
2022-11-29T05:56:42.490Z,10.65
2022-11-29T05:59:44.114Z,10.32
2022-11-29T06:03:12.351Z,10.73
2022-11-29T06:06:33.966Z,10.65
2022-11-29T06:09:50.336Z,11.27
2022-11-29T06:13:10.852Z,11.07
2022-11-29T06:16:28.273Z,9.70
2022-11-29T06:19:37.574Z,9.80
2022-11-29T06:22:45.311Z,10.82
2022-11-29T06:25:48.592Z,10.23
2022-11-29T06:28:54.356Z,10.80
2022-11-29T06:32:04.300Z,10.13
2022-11-29T06:35:29.417Z,11.83
2022-11-29T06:38:31.241Z,10.43
2022-11-29T06:41:33.034Z,10.98
2022-11-29T06:44:35.142Z,11.45
2022-11-29T06:47:39.513Z,9.73
2022-11-29T06:50:49.884Z,10.65
2022-11-29T06:54:04.552Z,10.85
2022-11-29T06:57:09.460Z,10.77
2022-11-29T07:00:40.521Z,10.60
2022-11-29T07:04:23.598Z,10.45
2022-11-29T07:07:25.627Z,9.70
2022-11-29T07:10:27.443Z,10.43
2022-11-29T07:13:29.300Z,10.65
2022-11-29T07:16:43.897Z,9.73
2022-11-29T07:19:56.860Z,10.00
2022-11-29T07:23:18.814Z,10.15
2022-11-29T07:26:22.806Z,9.85
2022-11-29T07:29:30.766Z,8.80
2022-11-29T07:33:00.655Z,9.77
2022-11-29T07:36:20.601Z,9.95
2022-11-29T07:39:50.005Z,9.60
2022-11-29T07:42:51.665Z,10.27
2022-11-29T07:45:54.048Z,10.98
2022-11-29T07:48:55.681Z,10.38
2022-11-29T07:51:57.470Z,11.77
2022-11-29T07:54:59.350Z,10.80
2022-11-29T07:58:00.948Z,11.32
2022-11-29T08:01:03.158Z,10.13
2022-11-29T08:04:04.933Z,10.95
2022-11-29T08:07:06.585Z,10.73
2022-11-29T08:10:10.993Z,10.17
2022-11-29T08:13:12.669Z,10.32
2022-11-29T08:16:18.138Z,9.90
2022-11-29T08:19:20.228Z,9.48
2022-11-29T08:22:21.992Z,9.70
2022-11-29T08:25:24.077Z,10.05
2022-11-29T08:28:25.724Z,10.77
2022-11-29T08:31:27.336Z,10.47
2022-11-29T08:34:29.053Z,10.10
2022-11-29T08:37:30.736Z,10.00
2022-11-29T08:40:32.424Z,10.60
2022-11-29T08:43:34.251Z,9.88
2022-11-29T08:46:54.704Z,11.63
2022-11-29T08:50:02.061Z,10.48
2022-11-29T08:53:22.722Z,10.75
2022-11-29T08:57:10.061Z,11.20
2022-11-29T08:59:46.208Z,12.23
2022-11-29T09:02:48.489Z,11.77
2022-11-29T09:05:50.110Z,12.45
2022-11-29T09:08:51.775Z,11.88
2022-11-29T09:11:53.498Z,11.60
2022-11-29T09:14:55.176Z,12.10
2022-11-29T09:17:57.056Z,12.55
2022-11-29T09:21:03.534Z,12.23
2022-11-29T09:24:06.647Z,11.55
2022-11-29T09:27:08.460Z,11.65
2022-11-29T09:30:10.802Z,10.48
2022-11-29T09:33:12.469Z,10.43
2022-11-29T09:36:14.187Z,11.70
2022-11-29T09:39:15.819Z,8.57
2022-11-29T09:42:39.548Z,11.60
2022-11-29T09:45:42.808Z,10.90
2022-11-29T09:49:06.673Z,12.15
2022-11-29T09:52:17.354Z,11.27
2022-11-29T09:55:38.181Z,11.85
2022-11-29T09:59:00.320Z,10.90
2022-11-29T10:02:21.832Z,12.30
2022-11-29T10:05:37.515Z,11.43
2022-11-29T10:08:43.708Z,12.23
2022-11-29T10:12:03.112Z,10.93
2022-11-29T10:15:20.247Z,12.20
2022-11-29T10:18:38.942Z,10.73
2022-11-29T10:21:42.130Z,12.05
2022-11-29T10:24:45.590Z,13.18
2022-11-29T10:27:47.514Z,11.13
2022-11-29T10:30:49.414Z,11.55
2022-11-29T10:33:51.186Z,11.60
2022-11-29T10:36:57.476Z,11.88
2022-11-29T10:40:04.688Z,12.25
2022-11-29T10:43:06.381Z,12.52
2022-11-29T10:46:14.764Z,10.32
2022-11-29T10:49:18.342Z,10.97
2022-11-29T10:52:21.050Z,11.32
2022-11-29T11:18:50.890Z,11.48
2022-11-29T12:45:30.393Z,13.55
2022-11-29T12:48:57.268Z,13.23
2022-11-29T12:52:26.493Z,14.17
2022-11-29T12:55:46.948Z,12.90
2022-11-29T12:59:02.787Z,13.82
2022-11-29T13:02:33.869Z,13.75
2022-11-29T13:05:35.519Z,14.07
2022-11-29T13:09:10.626Z,15.82
2022-11-29T13:12:16.763Z,14.88
2022-11-29T13:15:38.282Z,15.52
2022-11-29T13:19:03.280Z,15.95
2022-11-29T13:22:35.773Z,14.63
2022-11-29T13:25:39.035Z,16.67
2022-11-29T13:28:42.466Z,14.63
2022-11-29T13:31:45.044Z,15.55
2022-11-29T13:34:46.997Z,15.88
2022-11-29T13:37:55.191Z,15.60
2022-11-29T13:41:26.168Z,15.25
2022-11-29T13:44:46.023Z,15.73
2022-11-29T13:47:59.171Z,16.40
2022-11-29T13:51:21.075Z,17.17
2022-11-29T13:54:33.585Z,16.52
2022-11-29T13:58:15.685Z,16.40
2022-11-29T14:01:16.143Z,16.80
2022-11-29T14:04:37.682Z,14.93
2022-11-29T14:08:42.196Z,17.25
2022-11-29T14:12:37.158Z,16.17
2022-11-29T14:15:39.484Z,15.27
2022-11-29T14:19:09.195Z,14.95
2022-11-29T14:22:21.349Z,17.30
2022-11-29T14:25:53.119Z,18.83
2022-11-29T14:28:45.663Z,16.02
2022-11-29T14:31:48.895Z,17.45
2022-11-29T14:35:12.495Z,17.20
2022-11-29T14:38:20.517Z,16.70
2022-11-29T14:41:50.312Z,16.92
2022-11-29T14:44:56.511Z,16.15
2022-11-29T14:47:59.294Z,16.80
2022-11-29T14:51:20.929Z,17.45
2022-11-29T14:54:22.845Z,16.75
2022-11-29T14:57:52.257Z,16.17
2022-11-29T15:01:04.994Z,17.42
2022-11-29T15:04:10.581Z,17.80
2022-11-29T15:07:16.865Z,17.17
2022-11-29T15:10:26.236Z,16.80
2022-11-29T15:13:36.546Z,16.50
2022-11-29T15:16:54.552Z,17.42
2022-11-29T15:20:18.133Z,16.30
2022-11-29T15:23:19.871Z,17.33
2022-11-29T15:26:21.947Z,15.77
2022-11-29T15:29:23.653Z,16.20
2022-11-29T15:32:31.057Z,17.00
2022-11-29T15:35:36.327Z,16.10
2022-11-29T15:38:56.681Z,17.27
2022-11-29T15:42:10.115Z,16.27
2022-11-29T15:45:28.290Z,16.52
2022-11-29T15:48:32.857Z,15.95
2022-11-29T15:51:35.764Z,15.50
2022-11-29T15:54:42.272Z,15.30
2022-11-29T15:57:46.766Z,16.33
2022-11-29T16:00:55.419Z,15.47
2022-11-29T16:03:57.302Z,16.42
2022-11-29T16:06:58.997Z,16.65
2022-11-29T16:10:05.837Z,17.20
2022-11-29T16:13:26.260Z,16.65
2022-11-29T16:16:31.868Z,18.17
2022-11-29T16:19:34.947Z,15.90
2022-11-29T16:22:37.950Z,15.70
2022-11-29T16:26:13.364Z,15.15
2022-11-29T16:29:39.894Z,15.75
2022-11-29T16:32:42.882Z,15.47
2022-11-29T16:35:44.527Z,16.42
2022-11-29T16:38:47.778Z,15.55
2022-11-29T16:42:05.487Z,15.43
2022-11-29T16:45:35.316Z,15.82
2022-11-29T16:48:43.545Z,17.05
2022-11-29T16:51:48.049Z,16.10
2022-11-29T16:54:50.648Z,16.13
2022-11-29T16:57:52.441Z,16.15
2022-11-29T17:00:54.193Z,15.05
2022-11-29T17:04:00.016Z,15.40
2022-11-29T17:07:01.756Z,15.65
2022-11-29T17:10:05.704Z,15.70
2022-11-29T17:13:13.414Z,16.65
2022-11-29T17:16:15.815Z,16.10
2022-11-29T17:19:18.343Z,17.15
2022-11-29T17:22:19.956Z,17.67
2022-11-29T17:25:21.555Z,15.83
2022-11-29T17:28:23.209Z,17.77
2022-11-29T17:31:24.928Z,16.08
2022-11-29T17:34:28.353Z,17.80
2022-11-29T17:37:30.517Z,17.27
2022-11-29T17:40:32.181Z,16.90
2022-11-29T17:43:34.948Z,17.02
2022-11-29T17:46:36.720Z,17.27
2022-11-29T17:49:38.354Z,17.85
2022-11-29T17:52:41.002Z,17.73
2022-11-29T17:55:42.768Z,17.80
2022-11-29T17:58:45.143Z,18.58
2022-11-29T18:01:49.623Z,17.88
2022-11-29T18:04:51.497Z,17.63
2022-11-29T18:07:59.152Z,18.15
2022-11-29T18:11:11.965Z,19.08
2022-11-29T18:14:15.516Z,17.80
2022-11-29T18:17:17.092Z,18.67
2022-11-29T18:20:18.724Z,18.20
2022-11-29T18:23:20.361Z,17.33
2022-11-29T18:26:23.531Z,18.27
2022-11-29T18:29:25.228Z,18.40
2022-11-29T18:32:27.573Z,17.75
2022-11-29T18:35:29.197Z,17.70
2022-11-29T18:38:31.847Z,17.88
2022-11-29T18:41:33.575Z,18.58
2022-11-29T18:44:35.220Z,18.80
2022-11-29T18:47:36.817Z,18.85
2022-11-29T18:50:38.489Z,16.88
2022-11-29T18:53:40.343Z,17.90
2022-11-29T18:56:42.198Z,17.83
2022-11-29T18:59:43.801Z,18.95
2022-11-29T19:02:46.072Z,17.48
2022-11-29T19:05:52.463Z,18.20
2022-11-29T19:08:54.734Z,19.23
2022-11-29T19:11:56.409Z,18.65
2022-11-29T19:14:58.044Z,19.30
2022-11-29T19:17:59.602Z,17.95
2022-11-29T19:21:08.481Z,19.63
2022-11-29T19:24:15.046Z,18.42
2022-11-29T19:27:16.837Z,19.30
2022-11-29T19:30:18.565Z,19.70
2022-11-29T19:33:20.164Z,19.70
2022-11-29T19:36:23.590Z,19.23
2022-11-29T19:39:25.301Z,17.65
2022-11-29T19:42:26.907Z,20.77
2022-11-29T19:45:28.558Z,19.50
2022-11-29T19:48:30.184Z,19.73
2022-11-29T19:51:31.931Z,19.13
2022-11-29T19:54:33.565Z,20.05
2022-11-29T19:57:35.266Z,18.30
2022-11-29T20:00:36.961Z,19.20
2022-11-29T20:03:38.789Z,20.30
2022-11-29T20:06:40.567Z,20.10
2022-11-29T20:09:45.832Z,19.80
2022-11-29T20:12:47.691Z,19.88
2022-11-29T20:15:49.465Z,20.77
2022-11-29T20:18:51.909Z,21.25
2022-11-29T20:21:53.677Z,21.17
2022-11-29T20:24:55.931Z,20.65
2022-11-29T20:27:57.587Z,19.93
2022-11-29T20:31:05.038Z,21.70
2022-11-29T20:34:06.973Z,21.52
2022-11-29T20:37:14.867Z,21.83
2022-11-29T20:40:19.590Z,20.25
2022-11-29T20:43:48.841Z,22.58
2022-11-29T20:46:50.723Z,22.17
2022-11-29T20:49:52.497Z,22.15
2022-11-29T20:53:18.984Z,22.20
2022-11-29T20:56:20.685Z,22.15
2022-11-29T20:59:22.317Z,21.90
2022-11-29T21:02:24.819Z,22.83
2022-11-29T21:05:33.440Z,22.25
2022-11-29T21:08:35.188Z,22.57
2022-11-29T21:11:37.062Z,22.88
2022-11-29T21:14:38.996Z,23.83
2022-11-29T21:17:41.191Z,22.83
2022-11-29T21:20:42.843Z,23.90
2022-11-29T21:24:02.818Z,23.38
2022-11-29T21:27:04.761Z,22.52
2022-11-29T21:30:07.125Z,23.43
2022-11-29T21:33:08.999Z,21.33
2022-11-29T21:36:10.665Z,23.30
2022-11-29T21:39:13.446Z,22.77
2022-11-29T21:42:15.149Z,23.45
2022-11-29T21:45:16.913Z,25.25
2022-11-29T21:48:37.707Z,23.23
2022-11-29T21:51:39.587Z,22.57
2022-11-29T21:54:41.369Z,23.75
2022-11-29T21:57:42.995Z,24.70
2022-11-29T22:00:45.321Z,23.42
2022-11-29T22:03:47.155Z,23.23
2022-11-29T22:06:48.797Z,24.50
2022-11-29T22:09:57.785Z,25.08
2022-11-29T22:12:59.582Z,24.37
2022-11-29T22:16:08.381Z,24.33
2022-11-29T22:19:12.358Z,24.95
2022-11-29T22:22:14.053Z,23.67
2022-11-29T22:25:15.823Z,23.52
2022-11-29T22:28:17.449Z,23.80
2022-11-29T22:31:19.144Z,24.58
2022-11-29T22:34:21.149Z,23.95
2022-11-29T22:37:22.744Z,23.58
2022-11-29T22:40:24.538Z,24.35
2022-11-29T22:43:26.093Z,24.23
2022-11-29T22:46:28.160Z,23.67
2022-11-29T22:49:30.081Z,24.73
2022-11-29T22:52:31.695Z,24.37
2022-11-29T22:55:33.295Z,23.90
2022-11-29T22:58:34.916Z,23.50
2022-11-29T23:01:37.855Z,22.85
2022-11-29T23:04:39.471Z,22.25
2022-11-29T23:07:41.102Z,23.27
2022-11-29T23:10:42.725Z,23.42
2022-11-29T23:13:44.502Z,23.27
2022-11-29T23:16:46.165Z,23.23
2022-11-29T23:19:47.799Z,22.25
2022-11-29T23:22:49.406Z,21.97
2022-11-29T23:25:51.059Z,21.05
2022-11-29T23:28:52.979Z,21.85
2022-11-29T23:31:54.651Z,22.38
2022-11-29T23:34:56.307Z,20.90
2022-11-29T23:37:57.891Z,21.10
2022-11-29T23:40:59.465Z,20.73
2022-11-29T23:44:02.498Z,20.80
2022-11-29T23:47:04.140Z,19.60
2022-11-29T23:50:06.374Z,20.08
2022-11-29T23:53:07.974Z,20.77
2022-11-29T23:56:14.328Z,20.23
2022-11-29T23:59:15.878Z,20.98
